Madeira, Ohio
Current Conditions -  °F | °C
As of 1:53 AM on Wednesday 22 Oct 2014 (Local Time) from KLUK Reporting Station
Overcast Overcast  
Wind Chill: 43°   Ceiling: 3300
Heat Index: 48°   Visibility: 10mi
Dew Point: 35°   Wind: 10mph
Humidity: 61%   Direction: 360°N
Pressure: 30.2"   Gusts: NA
Location:  39.1838°N, 84.3411°W
Report Text: KLUK 220553Z AUTO 36009KT 10SM BKN033 OVC040 09/02 A3020 RMK AO2 SLP226 T00890017 10100 20067 51002
Loading
Personal Weather Stations






























Interactive Weather Map
Tropical Storm Tracking
New forecast layout! Learn more

10-Day Weather Forecast

Advertisements
Track Severe Weather on mobile